sensor_id;sensor_type;location;lat;lon;timestamp;P1;durP1;ratioP1;P2;durP2;ratioP2
30723;SDS011;17473;52.286;20.930;2022-12-17T00:02:17;51.13;;;20.37;;
30723;SDS011;17473;52.286;20.930;2022-12-17T00:05:03;50.93;;;22.63;;
30723;SDS011;17473;52.286;20.930;2022-12-17T00:07:55;46.80;;;20.97;;
30723;SDS011;17473;52.286;20.930;2022-12-17T00:10:45;48.73;;;21.80;;
30723;SDS011;17473;52.286;20.930;2022-12-17T00:13:30;47.40;;;21.10;;
30723;SDS011;17473;52.286;20.930;2022-12-17T00:16:16;45.23;;;22.60;;
30723;SDS011;17473;52.286;20.930;2022-12-17T00:19:02;44.47;;;20.20;;
30723;SDS011;17473;52.286;20.930;2022-12-17T00:21:48;46.77;;;20.23;;
30723;SDS011;17473;52.286;20.930;2022-12-17T00:24:34;40.57;;;19.93;;
30723;SDS011;17473;52.286;20.930;2022-12-17T00:27:21;43.47;;;20.53;;
30723;SDS011;17473;52.286;20.930;2022-12-17T00:30:07;49.13;;;22.20;;
30723;SDS011;17473;52.286;20.930;2022-12-17T00:32:53;50.13;;;22.50;;
30723;SDS011;17473;52.286;20.930;2022-12-17T00:35:39;47.33;;;20.30;;
30723;SDS011;17473;52.286;20.930;2022-12-17T00:38:25;43.67;;;21.17;;
30723;SDS011;17473;52.286;20.930;2022-12-17T00:41:11;47.70;;;22.80;;
30723;SDS011;17473;52.286;20.930;2022-12-17T00:43:56;43.60;;;19.20;;
30723;SDS011;17473;52.286;20.930;2022-12-17T00:46:42;45.20;;;21.10;;
30723;SDS011;17473;52.286;20.930;2022-12-17T00:49:28;44.00;;;20.90;;
30723;SDS011;17473;52.286;20.930;2022-12-17T00:52:14;47.50;;;21.80;;
30723;SDS011;17473;52.286;20.930;2022-12-17T00:54:59;44.93;;;21.27;;
30723;SDS011;17473;52.286;20.930;2022-12-17T00:57:45;43.70;;;21.10;;
30723;SDS011;17473;52.286;20.930;2022-12-17T01:00:35;48.37;;;22.67;;
30723;SDS011;17473;52.286;20.930;2022-12-17T01:03:21;53.47;;;22.00;;
30723;SDS011;17473;52.286;20.930;2022-12-17T01:06:07;49.47;;;23.23;;
30723;SDS011;17473;52.286;20.930;2022-12-17T01:08:53;53.23;;;23.13;;
30723;SDS011;17473;52.286;20.930;2022-12-17T01:11:39;50.27;;;22.07;;
30723;SDS011;17473;52.286;20.930;2022-12-17T01:14:25;47.13;;;22.17;;
30723;SDS011;17473;52.286;20.930;2022-12-17T01:17:11;49.33;;;21.83;;
30723;SDS011;17473;52.286;20.930;2022-12-17T01:19:57;50.40;;;22.97;;
30723;SDS011;17473;52.286;20.930;2022-12-17T01:22:44;50.77;;;22.93;;
30723;SDS011;17473;52.286;20.930;2022-12-17T01:25:29;47.63;;;22.60;;
30723;SDS011;17473;52.286;20.930;2022-12-17T01:28:19;46.83;;;22.00;;
30723;SDS011;17473;52.286;20.930;2022-12-17T01:31:08;51.77;;;22.70;;
30723;SDS011;17473;52.286;20.930;2022-12-17T01:34:00;47.17;;;21.17;;
30723;SDS011;17473;52.286;20.930;2022-12-17T01:36:46;49.47;;;22.20;;
30723;SDS011;17473;52.286;20.930;2022-12-17T01:39:32;45.37;;;22.13;;
30723;SDS011;17473;52.286;20.930;2022-12-17T01:42:17;45.93;;;21.17;;
30723;SDS011;17473;52.286;20.930;2022-12-17T01:45:03;49.97;;;21.70;;
30723;SDS011;17473;52.286;20.930;2022-12-17T01:47:56;43.17;;;20.80;;
30723;SDS011;17473;52.286;20.930;2022-12-17T01:50:49;43.77;;;21.30;;
30723;SDS011;17473;52.286;20.930;2022-12-17T01:53:43;46.33;;;20.83;;
30723;SDS011;17473;52.286;20.930;2022-12-17T01:56:34;43.93;;;21.73;;
30723;SDS011;17473;52.286;20.930;2022-12-17T01:59:25;48.57;;;21.03;;
30723;SDS011;17473;52.286;20.930;2022-12-17T02:02:26;46.37;;;20.83;;
30723;SDS011;17473;52.286;20.930;2022-12-17T02:05:12;44.60;;;20.77;;
30723;SDS011;17473;52.286;20.930;2022-12-17T02:17:12;44.13;;;21.00;;
30723;SDS011;17473;52.286;20.930;2022-12-17T02:20:18;44.63;;;20.40;;
30723;SDS011;17473;52.286;20.930;2022-12-17T02:29:46;38.47;;;18.67;;
30723;SDS011;17473;52.286;20.930;2022-12-17T02:32:37;40.37;;;19.13;;
30723;SDS011;17473;52.286;20.930;2022-12-17T02:35:31;40.37;;;18.47;;
30723;SDS011;17473;52.286;20.930;2022-12-17T02:38:24;41.30;;;20.37;;
30723;SDS011;17473;52.286;20.930;2022-12-17T02:41:16;42.63;;;19.37;;
30723;SDS011;17473;52.286;20.930;2022-12-17T02:44:10;43.50;;;20.30;;
30723;SDS011;17473;52.286;20.930;2022-12-17T02:46:58;40.43;;;18.43;;
30723;SDS011;17473;52.286;20.930;2022-12-17T02:49:46;40.00;;;18.77;;
30723;SDS011;17473;52.286;20.930;2022-12-17T02:52:32;39.07;;;18.63;;
30723;SDS011;17473;52.286;20.930;2022-12-17T02:55:23;44.87;;;20.33;;
30723;SDS011;17473;52.286;20.930;2022-12-17T02:58:09;43.03;;;19.27;;
30723;SDS011;17473;52.286;20.930;2022-12-17T03:00:54;42.20;;;19.87;;
30723;SDS011;17473;52.286;20.930;2022-12-17T03:03:40;43.67;;;20.37;;
30723;SDS011;17473;52.286;20.930;2022-12-17T03:06:26;45.50;;;20.87;;
30723;SDS011;17473;52.286;20.930;2022-12-17T03:09:11;51.13;;;22.87;;
30723;SDS011;17473;52.286;20.930;2022-12-17T03:11:57;45.20;;;21.87;;
30723;SDS011;17473;52.286;20.930;2022-12-17T03:14:43;49.87;;;21.63;;
30723;SDS011;17473;52.286;20.930;2022-12-17T03:17:29;51.37;;;22.93;;
30723;SDS011;17473;52.286;20.930;2022-12-17T03:20:15;51.57;;;22.20;;
30723;SDS011;17473;52.286;20.930;2022-12-17T03:23:02;47.77;;;20.97;;
30723;SDS011;17473;52.286;20.930;2022-12-17T03:25:53;47.37;;;21.40;;
30723;SDS011;17473;52.286;20.930;2022-12-17T03:28:42;47.50;;;21.70;;
30723;SDS011;17473;52.286;20.930;2022-12-17T03:31:28;50.43;;;22.07;;
30723;SDS011;17473;52.286;20.930;2022-12-17T03:34:13;43.77;;;21.17;;
30723;SDS011;17473;52.286;20.930;2022-12-17T03:36:59;46.20;;;20.37;;
30723;SDS011;17473;52.286;20.930;2022-12-17T03:39:44;47.93;;;20.63;;
30723;SDS011;17473;52.286;20.930;2022-12-17T03:42:30;45.07;;;20.27;;
30723;SDS011;17473;52.286;20.930;2022-12-17T03:45:16;47.43;;;19.60;;
30723;SDS011;17473;52.286;20.930;2022-12-17T03:48:02;45.43;;;20.13;;
30723;SDS011;17473;52.286;20.930;2022-12-17T03:50:58;44.10;;;19.00;;
30723;SDS011;17473;52.286;20.930;2022-12-17T03:53:44;53.03;;;21.37;;
30723;SDS011;17473;52.286;20.930;2022-12-17T03:56:31;42.87;;;19.53;;
30723;SDS011;17473;52.286;20.930;2022-12-17T03:59:17;42.80;;;19.30;;
30723;SDS011;17473;52.286;20.930;2022-12-17T04:02:02;39.53;;;19.43;;
30723;SDS011;17473;52.286;20.930;2022-12-17T04:04:48;39.60;;;18.13;;
30723;SDS011;17473;52.286;20.930;2022-12-17T04:07:40;37.87;;;18.63;;
30723;SDS011;17473;52.286;20.930;2022-12-17T04:10:42;44.93;;;19.50;;
30723;SDS011;17473;52.286;20.930;2022-12-17T04:13:28;39.57;;;18.60;;
30723;SDS011;17473;52.286;20.930;2022-12-17T04:16:14;39.63;;;17.57;;
30723;SDS011;17473;52.286;20.930;2022-12-17T04:18:59;38.03;;;18.47;;
30723;SDS011;17473;52.286;20.930;2022-12-17T04:21:45;44.10;;;18.90;;
30723;SDS011;17473;52.286;20.930;2022-12-17T04:24:31;37.80;;;18.20;;
30723;SDS011;17473;52.286;20.930;2022-12-17T04:27:16;37.97;;;18.03;;
30723;SDS011;17473;52.286;20.930;2022-12-17T04:30:02;42.30;;;19.23;;
30723;SDS011;17473;52.286;20.930;2022-12-17T04:32:48;38.80;;;17.07;;
30723;SDS011;17473;52.286;20.930;2022-12-17T04:35:34;38.33;;;17.67;;
30723;SDS011;17473;52.286;20.930;2022-12-17T04:38:20;39.20;;;17.87;;
30723;SDS011;17473;52.286;20.930;2022-12-17T04:41:05;43.17;;;17.40;;
30723;SDS011;17473;52.286;20.930;2022-12-17T04:43:51;38.03;;;18.40;;
30723;SDS011;17473;52.286;20.930;2022-12-17T04:46:44;70.47;;;19.60;;
30723;SDS011;17473;52.286;20.930;2022-12-17T04:49:30;41.03;;;18.80;;
30723;SDS011;17473;52.286;20.930;2022-12-17T04:52:16;41.07;;;17.93;;
30723;SDS011;17473;52.286;20.930;2022-12-17T04:55:01;38.83;;;17.30;;
30723;SDS011;17473;52.286;20.930;2022-12-17T04:57:47;36.50;;;18.17;;
30723;SDS011;17473;52.286;20.930;2022-12-17T05:00:33;44.23;;;18.43;;
30723;SDS011;17473;52.286;20.930;2022-12-17T05:03:19;45.37;;;18.67;;
30723;SDS011;17473;52.286;20.930;2022-12-17T05:06:05;46.30;;;17.70;;
30723;SDS011;17473;52.286;20.930;2022-12-17T05:08:53;37.67;;;18.67;;
30723;SDS011;17473;52.286;20.930;2022-12-17T05:11:38;37.00;;;17.13;;
30723;SDS011;17473;52.286;20.930;2022-12-17T05:14:24;36.97;;;16.57;;
30723;SDS011;17473;52.286;20.930;2022-12-17T05:17:09;37.47;;;18.07;;
30723;SDS011;17473;52.286;20.930;2022-12-17T05:19:55;39.63;;;17.37;;
30723;SDS011;17473;52.286;20.930;2022-12-17T05:22:41;40.33;;;18.60;;
30723;SDS011;17473;52.286;20.930;2022-12-17T05:25:26;42.40;;;16.43;;
30723;SDS011;17473;52.286;20.930;2022-12-17T05:28:12;38.77;;;18.37;;
30723;SDS011;17473;52.286;20.930;2022-12-17T05:30:57;39.77;;;18.33;;
30723;SDS011;17473;52.286;20.930;2022-12-17T05:33:43;43.20;;;19.23;;
30723;SDS011;17473;52.286;20.930;2022-12-17T05:36:33;41.87;;;19.00;;
30723;SDS011;17473;52.286;20.930;2022-12-17T05:39:19;37.90;;;18.57;;
30723;SDS011;17473;52.286;20.930;2022-12-17T05:42:05;43.67;;;19.00;;
30723;SDS011;17473;52.286;20.930;2022-12-17T05:44:50;37.93;;;17.90;;
30723;SDS011;17473;52.286;20.930;2022-12-17T05:47:36;42.10;;;19.37;;
30723;SDS011;17473;52.286;20.930;2022-12-17T05:50:21;40.80;;;19.50;;
30723;SDS011;17473;52.286;20.930;2022-12-17T05:53:07;41.73;;;18.60;;
30723;SDS011;17473;52.286;20.930;2022-12-17T05:55:53;39.27;;;18.50;;
30723;SDS011;17473;52.286;20.930;2022-12-17T05:58:39;43.07;;;17.83;;
30723;SDS011;17473;52.286;20.930;2022-12-17T06:01:24;42.93;;;19.03;;
30723;SDS011;17473;52.286;20.930;2022-12-17T06:04:10;41.00;;;17.87;;
30723;SDS011;17473;52.286;20.930;2022-12-17T06:06:55;35.37;;;17.97;;
30723;SDS011;17473;52.286;20.930;2022-12-17T06:09:41;37.90;;;18.10;;
30723;SDS011;17473;52.286;20.930;2022-12-17T06:12:27;35.40;;;17.10;;
30723;SDS011;17473;52.286;20.930;2022-12-17T06:15:13;38.00;;;17.60;;
30723;SDS011;17473;52.286;20.930;2022-12-17T06:17:58;40.67;;;19.03;;
30723;SDS011;17473;52.286;20.930;2022-12-17T06:20:44;42.93;;;18.47;;
30723;SDS011;17473;52.286;20.930;2022-12-17T06:23:30;42.93;;;18.20;;
30723;SDS011;17473;52.286;20.930;2022-12-17T06:26:17;45.33;;;19.80;;
30723;SDS011;17473;52.286;20.930;2022-12-17T06:29:03;42.23;;;18.77;;
30723;SDS011;17473;52.286;20.930;2022-12-17T06:31:48;41.83;;;18.80;;
30723;SDS011;17473;52.286;20.930;2022-12-17T06:34:34;47.83;;;19.33;;
30723;SDS011;17473;52.286;20.930;2022-12-17T06:37:20;41.83;;;17.67;;
30723;SDS011;17473;52.286;20.930;2022-12-17T06:40:05;47.53;;;20.13;;
30723;SDS011;17473;52.286;20.930;2022-12-17T06:42:55;40.13;;;18.13;;
30723;SDS011;17473;52.286;20.930;2022-12-17T06:45:41;41.63;;;20.20;;
30723;SDS011;17473;52.286;20.930;2022-12-17T06:48:27;36.27;;;17.63;;
30723;SDS011;17473;52.286;20.930;2022-12-17T06:51:12;48.17;;;19.87;;
30723;SDS011;17473;52.286;20.930;2022-12-17T06:53:58;47.37;;;18.67;;
30723;SDS011;17473;52.286;20.930;2022-12-17T06:56:44;40.37;;;19.23;;
30723;SDS011;17473;52.286;20.930;2022-12-17T06:59:29;40.83;;;18.83;;
30723;SDS011;17473;52.286;20.930;2022-12-17T07:02:15;43.37;;;19.70;;
30723;SDS011;17473;52.286;20.930;2022-12-17T07:05:01;41.53;;;18.37;;
30723;SDS011;17473;52.286;20.930;2022-12-17T07:07:46;35.90;;;17.80;;
30723;SDS011;17473;52.286;20.930;2022-12-17T07:10:32;43.87;;;19.27;;
30723;SDS011;17473;52.286;20.930;2022-12-17T07:13:19;39.47;;;17.50;;
30723;SDS011;17473;52.286;20.930;2022-12-17T07:16:05;41.97;;;17.43;;
30723;SDS011;17473;52.286;20.930;2022-12-17T07:18:51;40.30;;;17.53;;
30723;SDS011;17473;52.286;20.930;2022-12-17T07:21:36;41.53;;;18.23;;
30723;SDS011;17473;52.286;20.930;2022-12-17T07:24:22;38.93;;;17.17;;
30723;SDS011;17473;52.286;20.930;2022-12-17T07:27:08;43.57;;;18.43;;
30723;SDS011;17473;52.286;20.930;2022-12-17T07:29:54;45.80;;;17.53;;
30723;SDS011;17473;52.286;20.930;2022-12-17T07:32:39;43.43;;;18.47;;
30723;SDS011;17473;52.286;20.930;2022-12-17T07:35:25;35.80;;;17.90;;
30723;SDS011;17473;52.286;20.930;2022-12-17T07:38:11;36.37;;;18.03;;
30723;SDS011;17473;52.286;20.930;2022-12-17T07:40:57;40.93;;;18.80;;
30723;SDS011;17473;52.286;20.930;2022-12-17T07:43:43;40.70;;;18.23;;
30723;SDS011;17473;52.286;20.930;2022-12-17T07:46:29;36.77;;;16.23;;
30723;SDS011;17473;52.286;20.930;2022-12-17T07:49:14;38.73;;;17.50;;
30723;SDS011;17473;52.286;20.930;2022-12-17T07:51:59;39.23;;;18.17;;
30723;SDS011;17473;52.286;20.930;2022-12-17T07:54:45;39.90;;;18.57;;
30723;SDS011;17473;52.286;20.930;2022-12-17T07:57:30;36.27;;;17.70;;
30723;SDS011;17473;52.286;20.930;2022-12-17T08:00:16;40.93;;;17.87;;
30723;SDS011;17473;52.286;20.930;2022-12-17T08:03:02;42.03;;;18.37;;
30723;SDS011;17473;52.286;20.930;2022-12-17T08:05:48;37.60;;;17.67;;
30723;SDS011;17473;52.286;20.930;2022-12-17T08:08:33;43.00;;;18.07;;
30723;SDS011;17473;52.286;20.930;2022-12-17T08:11:19;38.33;;;18.00;;
30723;SDS011;17473;52.286;20.930;2022-12-17T08:14:05;38.87;;;18.10;;
30723;SDS011;17473;52.286;20.930;2022-12-17T08:16:50;35.73;;;16.90;;
30723;SDS011;17473;52.286;20.930;2022-12-17T08:19:36;36.00;;;16.53;;
30723;SDS011;17473;52.286;20.930;2022-12-17T08:22:22;36.07;;;15.60;;
30723;SDS011;17473;52.286;20.930;2022-12-17T08:25:07;37.27;;;16.97;;
30723;SDS011;17473;52.286;20.930;2022-12-17T08:27:54;37.27;;;17.43;;
30723;SDS011;17473;52.286;20.930;2022-12-17T08:31:04;38.20;;;17.43;;
30723;SDS011;17473;52.286;20.930;2022-12-17T08:33:50;40.77;;;17.20;;
30723;SDS011;17473;52.286;20.930;2022-12-17T08:36:35;33.60;;;16.30;;
30723;SDS011;17473;52.286;20.930;2022-12-17T08:39:21;37.60;;;17.00;;
30723;SDS011;17473;52.286;20.930;2022-12-17T08:42:07;39.43;;;17.60;;
30723;SDS011;17473;52.286;20.930;2022-12-17T08:44:53;35.67;;;17.03;;
30723;SDS011;17473;52.286;20.930;2022-12-17T08:47:39;38.90;;;16.67;;
30723;SDS011;17473;52.286;20.930;2022-12-17T08:50:29;40.80;;;17.87;;
30723;SDS011;17473;52.286;20.930;2022-12-17T08:53:15;40.57;;;17.30;;
30723;SDS011;17473;52.286;20.930;2022-12-17T08:56:00;32.63;;;16.23;;
30723;SDS011;17473;52.286;20.930;2022-12-17T08:58:46;50.50;;;19.63;;
30723;SDS011;17473;52.286;20.930;2022-12-17T09:01:31;42.63;;;18.60;;
30723;SDS011;17473;52.286;20.930;2022-12-17T09:04:17;36.70;;;18.53;;
30723;SDS011;17473;52.286;20.930;2022-12-17T09:07:03;43.30;;;19.07;;
30723;SDS011;17473;52.286;20.930;2022-12-17T09:09:48;39.43;;;18.23;;
30723;SDS011;17473;52.286;20.930;2022-12-17T09:12:34;37.57;;;18.07;;
30723;SDS011;17473;52.286;20.930;2022-12-17T09:15:26;42.00;;;18.23;;
30723;SDS011;17473;52.286;20.930;2022-12-17T09:18:12;40.20;;;19.30;;
30723;SDS011;17473;52.286;20.930;2022-12-17T09:21:16;48.20;;;20.27;;
30723;SDS011;17473;52.286;20.930;2022-12-17T09:24:01;43.17;;;19.77;;
30723;SDS011;17473;52.286;20.930;2022-12-17T09:26:47;46.20;;;21.47;;
30723;SDS011;17473;52.286;20.930;2022-12-17T09:29:33;38.40;;;18.10;;
30723;SDS011;17473;52.286;20.930;2022-12-17T09:32:18;38.80;;;17.10;;
30723;SDS011;17473;52.286;20.930;2022-12-17T09:35:04;43.13;;;18.77;;
30723;SDS011;17473;52.286;20.930;2022-12-17T09:37:53;41.53;;;18.13;;
30723;SDS011;17473;52.286;20.930;2022-12-17T09:40:41;40.67;;;18.87;;
30723;SDS011;17473;52.286;20.930;2022-12-17T09:43:43;43.23;;;19.70;;
30723;SDS011;17473;52.286;20.930;2022-12-17T09:50:28;43.93;;;20.53;;
30723;SDS011;17473;52.286;20.930;2022-12-17T09:53:56;47.10;;;20.03;;
30723;SDS011;17473;52.286;20.930;2022-12-17T09:56:35;50.70;;;20.80;;
30723;SDS011;17473;52.286;20.930;2022-12-17T09:59:27;52.43;;;22.70;;
30723;SDS011;17473;52.286;20.930;2022-12-17T10:02:27;49.57;;;20.80;;
30723;SDS011;17473;52.286;20.930;2022-12-17T10:05:19;53.60;;;21.63;;
30723;SDS011;17473;52.286;20.930;2022-12-17T10:08:13;53.67;;;20.97;;
30723;SDS011;17473;52.286;20.930;2022-12-17T10:11:12;44.30;;;19.73;;
30723;SDS011;17473;52.286;20.930;2022-12-17T10:14:20;51.50;;;19.50;;
30723;SDS011;17473;52.286;20.930;2022-12-17T10:17:15;46.87;;;19.27;;
30723;SDS011;17473;52.286;20.930;2022-12-17T10:20:09;36.63;;;17.13;;
30723;SDS011;17473;52.286;20.930;2022-12-17T10:23:27;45.27;;;18.53;;
30723;SDS011;17473;52.286;20.930;2022-12-17T10:26:19;38.27;;;17.87;;
30723;SDS011;17473;52.286;20.930;2022-12-17T10:29:21;46.13;;;20.57;;
30723;SDS011;17473;52.286;20.930;2022-12-17T10:34:59;42.07;;;17.17;;
30723;SDS011;17473;52.286;20.930;2022-12-17T10:37:51;42.47;;;18.13;;
30723;SDS011;17473;52.286;20.930;2022-12-17T10:40:37;37.17;;;17.40;;
30723;SDS011;17473;52.286;20.930;2022-12-17T10:43:33;40.80;;;17.40;;
30723;SDS011;17473;52.286;20.930;2022-12-17T10:49:20;48.80;;;17.80;;
30723;SDS011;17473;52.286;20.930;2022-12-17T10:52:21;46.10;;;18.53;;
30723;SDS011;17473;52.286;20.930;2022-12-17T10:55:17;44.37;;;18.60;;
30723;SDS011;17473;52.286;20.930;2022-12-17T11:01:12;42.03;;;18.90;;
30723;SDS011;17473;52.286;20.930;2022-12-17T11:07:22;45.07;;;19.53;;
30723;SDS011;17473;52.286;20.930;2022-12-17T11:10:23;39.67;;;17.93;;
30723;SDS011;17473;52.286;20.930;2022-12-17T11:13:16;46.67;;;18.37;;
30723;SDS011;17473;52.286;20.930;2022-12-17T11:16:22;41.33;;;20.20;;
30723;SDS011;17473;52.286;20.930;2022-12-17T11:22:28;42.10;;;19.13;;
30723;SDS011;17473;52.286;20.930;2022-12-17T11:25:34;46.23;;;19.77;;
30723;SDS011;17473;52.286;20.930;2022-12-17T11:28:41;48.17;;;18.87;;
30723;SDS011;17473;52.286;20.930;2022-12-17T11:40:52;48.10;;;18.13;;
30723;SDS011;17473;52.286;20.930;2022-12-17T11:47:07;46.23;;;19.47;;
30723;SDS011;17473;52.286;20.930;2022-12-17T11:53:28;46.27;;;17.77;;
30723;SDS011;17473;52.286;20.930;2022-12-17T11:56:49;38.43;;;17.60;;
30723;SDS011;17473;52.286;20.930;2022-12-17T11:59:54;38.00;;;16.83;;
30723;SDS011;17473;52.286;20.930;2022-12-17T12:03:37;44.17;;;18.07;;
30723;SDS011;17473;52.286;20.930;2022-12-17T12:06:22;43.83;;;19.20;;
30723;SDS011;17473;52.286;20.930;2022-12-17T12:12:39;44.00;;;19.97;;
30723;SDS011;17473;52.286;20.930;2022-12-17T12:15:47;45.17;;;17.17;;
30723;SDS011;17473;52.286;20.930;2022-12-17T12:19:17;36.70;;;17.10;;
30723;SDS011;17473;52.286;20.930;2022-12-17T12:25:52;40.40;;;18.70;;
30723;SDS011;17473;52.286;20.930;2022-12-17T12:29:33;36.23;;;16.00;;
30723;SDS011;17473;52.286;20.930;2022-12-17T12:32:41;38.67;;;17.30;;
30723;SDS011;17473;52.286;20.930;2022-12-17T12:36:01;38.30;;;16.47;;
30723;SDS011;17473;52.286;20.930;2022-12-17T12:38:52;35.13;;;16.03;;
30723;SDS011;17473;52.286;20.930;2022-12-17T12:41:59;40.73;;;16.83;;
30723;SDS011;17473;52.286;20.930;2022-12-17T12:45:05;35.13;;;16.60;;
30723;SDS011;17473;52.286;20.930;2022-12-17T12:51:15;40.40;;;18.00;;
30723;SDS011;17473;52.286;20.930;2022-12-17T12:54:20;36.90;;;16.33;;
30723;SDS011;17473;52.286;20.930;2022-12-17T12:58:01;39.00;;;17.47;;
30723;SDS011;17473;52.286;20.930;2022-12-17T13:01:11;39.73;;;17.30;;
30723;SDS011;17473;52.286;20.930;2022-12-17T13:03:57;35.83;;;16.27;;
30723;SDS011;17473;52.286;20.930;2022-12-17T13:06:58;42.43;;;18.63;;
30723;SDS011;17473;52.286;20.930;2022-12-17T13:14:30;41.07;;;18.70;;
30723;SDS011;17473;52.286;20.930;2022-12-17T13:17:29;41.47;;;18.73;;
30723;SDS011;17473;52.286;20.930;2022-12-17T13:20:43;42.03;;;19.63;;
30723;SDS011;17473;52.286;20.930;2022-12-17T13:23:30;49.83;;;20.13;;
30723;SDS011;17473;52.286;20.930;2022-12-17T13:26:11;46.03;;;19.17;;
30723;SDS011;17473;52.286;20.930;2022-12-17T13:28:43;42.87;;;18.97;;
30723;SDS011;17473;52.286;20.930;2022-12-17T13:31:25;50.90;;;21.70;;
30723;SDS011;17473;52.286;20.930;2022-12-17T13:46:21;53.33;;;21.23;;
30723;SDS011;17473;52.286;20.930;2022-12-17T13:49:19;42.10;;;19.67;;
30723;SDS011;17473;52.286;20.930;2022-12-17T13:54:44;40.97;;;18.47;;
30723;SDS011;17473;52.286;20.930;2022-12-17T13:57:15;44.90;;;17.83;;
30723;SDS011;17473;52.286;20.930;2022-12-17T13:59:52;47.40;;;18.53;;
30723;SDS011;17473;52.286;20.930;2022-12-17T14:02:28;39.90;;;18.93;;
30723;SDS011;17473;52.286;20.930;2022-12-17T14:05:00;50.93;;;21.03;;
30723;SDS011;17473;52.286;20.930;2022-12-17T14:07:34;47.87;;;18.67;;
30723;SDS011;17473;52.286;20.930;2022-12-17T14:10:04;48.70;;;19.00;;
30723;SDS011;17473;52.286;20.930;2022-12-17T14:12:43;51.60;;;20.27;;
30723;SDS011;17473;52.286;20.930;2022-12-17T14:15:17;51.50;;;18.90;;
30723;SDS011;17473;52.286;20.930;2022-12-17T14:17:51;46.00;;;19.03;;
30723;SDS011;17473;52.286;20.930;2022-12-17T14:20:30;50.13;;;21.47;;
30723;SDS011;17473;52.286;20.930;2022-12-17T14:23:07;43.97;;;19.30;;
30723;SDS011;17473;52.286;20.930;2022-12-17T14:25:48;43.43;;;18.00;;
30723;SDS011;17473;52.286;20.930;2022-12-17T14:34:02;49.23;;;20.03;;
30723;SDS011;17473;52.286;20.930;2022-12-17T14:36:40;42.43;;;17.73;;
30723;SDS011;17473;52.286;20.930;2022-12-17T14:39:17;44.20;;;18.30;;
30723;SDS011;17473;52.286;20.930;2022-12-17T14:41:57;45.57;;;18.83;;
30723;SDS011;17473;52.286;20.930;2022-12-17T14:44:52;40.90;;;18.43;;
30723;SDS011;17473;52.286;20.930;2022-12-17T14:47:33;45.63;;;18.13;;
30723;SDS011;17473;52.286;20.930;2022-12-17T14:52:49;42.17;;;18.67;;
30723;SDS011;17473;52.286;20.930;2022-12-17T15:03:22;45.20;;;18.37;;
30723;SDS011;17473;52.286;20.930;2022-12-17T15:06:08;44.40;;;18.20;;
30723;SDS011;17473;52.286;20.930;2022-12-17T15:08:41;46.63;;;17.97;;
30723;SDS011;17473;52.286;20.930;2022-12-17T15:11:12;51.50;;;19.37;;
30723;SDS011;17473;52.286;20.930;2022-12-17T15:13:41;55.13;;;21.37;;
30723;SDS011;17473;52.286;20.930;2022-12-17T15:16:09;56.40;;;22.33;;
30723;SDS011;17473;52.286;20.930;2022-12-17T15:18:36;54.40;;;22.10;;
30723;SDS011;17473;52.286;20.930;2022-12-17T15:21:04;48.10;;;19.43;;
30723;SDS011;17473;52.286;20.930;2022-12-17T15:23:31;44.67;;;19.27;;
30723;SDS011;17473;52.286;20.930;2022-12-17T15:25:58;50.33;;;19.83;;
30723;SDS011;17473;52.286;20.930;2022-12-17T15:28:25;47.93;;;21.13;;
30723;SDS011;17473;52.286;20.930;2022-12-17T15:30:52;44.30;;;19.47;;
30723;SDS011;17473;52.286;20.930;2022-12-17T15:33:20;41.63;;;20.00;;
30723;SDS011;17473;52.286;20.930;2022-12-17T15:35:47;48.57;;;19.97;;
30723;SDS011;17473;52.286;20.930;2022-12-17T15:38:14;44.67;;;21.00;;
30723;SDS011;17473;52.286;20.930;2022-12-17T15:40:41;42.80;;;19.10;;
30723;SDS011;17473;52.286;20.930;2022-12-17T15:43:11;46.00;;;19.47;;
30723;SDS011;17473;52.286;20.930;2022-12-17T15:45:39;45.90;;;20.27;;
30723;SDS011;17473;52.286;20.930;2022-12-17T15:48:14;50.40;;;21.90;;
30723;SDS011;17473;52.286;20.930;2022-12-17T15:50:46;49.73;;;21.47;;
30723;SDS011;17473;52.286;20.930;2022-12-17T15:53:14;45.13;;;20.73;;
30723;SDS011;17473;52.286;20.930;2022-12-17T15:55:41;45.40;;;20.70;;
30723;SDS011;17473;52.286;20.930;2022-12-17T15:58:08;45.83;;;19.60;;
30723;SDS011;17473;52.286;20.930;2022-12-17T16:00:39;46.10;;;19.80;;
30723;SDS011;17473;52.286;20.930;2022-12-17T16:03:08;45.10;;;20.30;;
30723;SDS011;17473;52.286;20.930;2022-12-17T16:05:35;46.47;;;20.77;;
30723;SDS011;17473;52.286;20.930;2022-12-17T16:08:02;51.97;;;20.67;;
30723;SDS011;17473;52.286;20.930;2022-12-17T16:10:29;48.13;;;20.13;;
30723;SDS011;17473;52.286;20.930;2022-12-17T16:12:56;46.30;;;20.20;;
30723;SDS011;17473;52.286;20.930;2022-12-17T16:15:24;46.90;;;20.87;;
30723;SDS011;17473;52.286;20.930;2022-12-17T16:17:51;50.27;;;20.10;;
30723;SDS011;17473;52.286;20.930;2022-12-17T16:20:19;50.63;;;19.93;;
30723;SDS011;17473;52.286;20.930;2022-12-17T16:22:48;46.07;;;20.67;;
30723;SDS011;17473;52.286;20.930;2022-12-17T16:25:15;47.50;;;20.67;;
30723;SDS011;17473;52.286;20.930;2022-12-17T16:27:42;49.97;;;21.63;;
30723;SDS011;17473;52.286;20.930;2022-12-17T16:30:09;48.57;;;20.63;;
30723;SDS011;17473;52.286;20.930;2022-12-17T16:32:37;47.03;;;20.47;;
30723;SDS011;17473;52.286;20.930;2022-12-17T16:35:04;45.50;;;19.00;;
30723;SDS011;17473;52.286;20.930;2022-12-17T16:37:32;55.17;;;20.10;;
30723;SDS011;17473;52.286;20.930;2022-12-17T16:39:59;46.43;;;19.10;;
30723;SDS011;17473;52.286;20.930;2022-12-17T16:42:26;43.27;;;20.33;;
30723;SDS011;17473;52.286;20.930;2022-12-17T16:44:53;43.93;;;20.03;;
30723;SDS011;17473;52.286;20.930;2022-12-17T16:47:20;43.50;;;18.57;;
30723;SDS011;17473;52.286;20.930;2022-12-17T16:49:48;44.93;;;19.87;;
30723;SDS011;17473;52.286;20.930;2022-12-17T16:52:16;43.43;;;18.87;;
30723;SDS011;17473;52.286;20.930;2022-12-17T16:54:43;38.67;;;17.93;;
30723;SDS011;17473;52.286;20.930;2022-12-17T16:57:10;39.90;;;18.67;;
30723;SDS011;17473;52.286;20.930;2022-12-17T16:59:37;41.63;;;18.73;;
30723;SDS011;17473;52.286;20.930;2022-12-17T17:02:04;45.77;;;19.47;;
30723;SDS011;17473;52.286;20.930;2022-12-17T17:04:37;38.87;;;17.43;;
30723;SDS011;17473;52.286;20.930;2022-12-17T17:07:04;40.70;;;18.70;;
30723;SDS011;17473;52.286;20.930;2022-12-17T17:09:31;45.63;;;19.63;;
30723;SDS011;17473;52.286;20.930;2022-12-17T17:11:58;39.17;;;18.17;;
30723;SDS011;17473;52.286;20.930;2022-12-17T17:14:25;39.70;;;17.57;;
30723;SDS011;17473;52.286;20.930;2022-12-17T17:16:52;42.93;;;18.20;;
30723;SDS011;17473;52.286;20.930;2022-12-17T17:19:19;42.03;;;18.43;;
30723;SDS011;17473;52.286;20.930;2022-12-17T17:21:47;41.40;;;17.10;;
30723;SDS011;17473;52.286;20.930;2022-12-17T17:24:18;38.43;;;17.77;;
30723;SDS011;17473;52.286;20.930;2022-12-17T17:26:48;35.27;;;16.50;;
30723;SDS011;17473;52.286;20.930;2022-12-17T17:29:16;32.43;;;14.40;;
30723;SDS011;17473;52.286;20.930;2022-12-17T17:31:43;38.20;;;15.67;;